Time;durP1;ratioP1;P1;durP2;ratioP2;P2;SDS_P1;SDS_P2;PMS_P1;PMS_P2;Temp;Humidity;BMP_temperature;BMP_pressure;BME280_temperature;BME280_humidity;BME280_pressure;Samples;Min_cycle;Max_cycle;Signal;HPM_P1;HPM_P2
2023/05/10 00:02:24;;;;;;;17.30;9.80;;;;;;;8.89;52.70;101272.36;104096;1273;101692;-76
2023/05/10 00:05:09;;;;;;;13.80;7.70;;;;;;;8.86;52.70;101269.59;104068;1276;99136;-76
2023/05/10 00:07:55;;;;;;;13.00;8.40;;;;;;;8.84;52.92;101267.87;104029;1287;97945;-77
2023/05/10 00:10:41;;;;;;;11.40;7.70;;;;;;;8.81;53.05;101264.64;104103;1277;96648;-76
2023/05/10 00:13:26;;;;;;;13.50;7.50;;;;;;;8.78;53.29;101263.00;104065;1274;97159;-77
2023/05/10 00:16:12;;;;;;;10.30;6.90;;;;;;;8.76;53.22;101260.55;104141;1276;100647;-76
2023/05/10 00:18:58;;;;;;;12.60;7.50;;;;;;;8.73;53.16;101259.59;104028;1274;99122;-76
2023/05/10 00:21:44;;;;;;;12.50;7.80;;;;;;;8.72;53.13;101260.66;104094;1272;99009;-76
2023/05/10 00:24:29;;;;;;;12.00;7.30;;;;;;;8.69;53.48;101255.74;104013;1277;97788;-77
2023/05/10 00:27:15;;;;;;;12.90;7.10;;;;;;;8.67;53.39;101257.05;104114;1279;97198;-77
2023/05/10 00:30:00;;;;;;;14.20;7.90;;;;;;;8.64;53.38;101253.77;104348;1277;101438;-76
2023/05/10 00:32:47;;;;;;;10.40;7.80;;;;;;;8.64;53.59;101255.73;103922;1275;99124;-77
2023/05/10 00:35:33;;;;;;;13.30;7.70;;;;;;;8.62;53.63;101255.73;103972;1277;98497;-76
2023/05/10 00:38:19;;;;;;;12.00;7.40;;;;;;;8.60;53.65;101256.17;104046;1290;97966;-76
2023/05/10 00:41:04;;;;;;;15.40;8.00;;;;;;;8.59;53.78;101255.57;104003;1277;97166;-76
2023/05/10 00:43:50;;;;;;;15.80;7.90;;;;;;;8.56;53.94;101256.59;104094;1276;101283;-76
2023/05/10 00:46:36;;;;;;;8.90;6.50;;;;;;;8.52;53.96;101252.10;104148;1277;99126;-76
2023/05/10 00:49:21;;;;;;;13.10;7.80;;;;;;;8.53;54.06;101249.70;103877;1280;98776;-76
2023/05/10 00:52:08;;;;;;;13.20;8.10;;;;;;;8.53;54.04;101249.39;104126;1277;97942;-77
2023/05/10 00:54:54;;;;;;;14.50;8.90;;;;;;;8.51;54.10;101249.62;103984;1279;97168;-77
2023/05/10 00:57:40;;;;;;;15.40;8.80;;;;;;;8.48;54.23;101246.90;104117;1276;100118;-76
2023/05/10 01:00:26;;;;;;;19.70;9.40;;;;;;;8.46;54.49;101252.58;104069;1277;100063;-76
2023/05/10 01:03:11;;;;;;;18.80;9.00;;;;;;;8.45;54.56;101249.35;104000;1276;98760;-76
2023/05/10 01:05:56;;;;;;;13.50;8.20;;;;;;;8.42;54.39;101245.55;104067;1277;96659;-76
2023/05/10 01:08:43;;;;;;;13.50;8.40;;;;;;;8.39;54.49;101241.09;104020;1287;98470;-77
2023/05/10 01:11:28;;;;;;;14.30;9.90;;;;;;;8.34;54.95;101244.27;104013;1277;101283;-76
2023/05/10 01:14:18;;;;;;;24.40;10.40;;;;;;;8.29;54.96;101242.16;103992;1278;99305;-77
2023/05/10 01:17:05;;;;;;;13.80;8.70;;;;;;;8.23;55.02;101236.68;104026;1280;99002;-77
2023/05/10 01:19:51;;;;;;;14.40;8.10;;;;;;;8.20;55.25;101236.29;104747;1279;96538;-77
2023/05/10 01:23:01;;;;;;;14.40;8.20;;;;;;;8.15;55.24;101233.52;104335;1277;97181;-75
2023/05/10 01:26:02;;;;;;;11.40;7.60;;;;;;;8.09;55.30;101231.67;104111;1276;101442;-76
2023/05/10 01:29:13;;;;;;;13.00;9.10;;;;;;;8.06;55.32;101230.59;103971;1288;99183;-76
2023/05/10 01:32:17;;;;;;;15.50;8.60;;;;;;;8.03;55.41;101232.16;104045;1279;98988;-76
2023/05/10 01:35:24;;;;;;;14.10;7.60;;;;;;;8.02;55.50;101230.83;104283;1275;97810;-77
2023/05/10 01:38:32;;;;;;;12.40;7.50;;;;;;;8.00;55.76;101232.48;104344;1276;97160;-75
2023/05/10 01:41:54;;;;;;;12.40;8.60;;;;;;;8.00;55.75;101231.98;104335;1277;101302;-77
2023/05/10 01:44:42;;;;;;;;;;;;;;;7.96;55.92;101231.08;104260;1277;99123;-76
2023/05/10 01:47:50;;;;;;;24.80;10.20;;;;;;;7.90;56.11;101231.38;104212;1273;99564;-76
2023/05/10 01:50:37;;;;;;;13.40;7.60;;;;;;;7.85;56.17;101229.15;104364;1273;96714;-76
2023/05/10 01:53:24;;;;;;;12.80;8.20;;;;;;;7.85;56.41;101230.45;104432;1277;98336;-76
2023/05/10 01:56:11;;;;;;;12.30;8.20;;;;;;;7.83;56.54;101230.10;104289;1279;101426;-76
2023/05/10 01:59:00;;;;;;;11.90;8.10;;;;;;;7.80;56.37;101226.44;103914;1287;101312;-76
2023/05/10 02:01:49;;;;;;;14.20;9.00;;;;;;;7.80;56.54;101224.91;103927;1273;97810;-77
2023/05/10 02:04:38;;;;;;;12.40;8.50;;;;;;;7.78;56.91;101225.59;104002;1289;97244;-76
2023/05/10 02:07:25;;;;;;;12.90;8.90;;;;;;;7.76;56.71;101220.30;103975;1273;96863;-76
2023/05/10 02:10:12;;;;;;;16.80;8.80;;;;;;;7.73;56.66;101218.12;104515;1276;100060;-77
2023/05/10 02:12:59;;;;;;;14.90;8.30;;;;;;;7.69;56.87;101218.66;104356;1279;99281;-76
2023/05/10 02:15:49;;;;;;;12.40;8.30;;;;;;;7.66;57.17;101218.26;104254;1279;97757;-76
2023/05/10 02:18:36;;;;;;;16.70;8.10;;;;;;;7.64;57.08;101218.83;104362;1273;96653;-77
2023/05/10 02:21:23;;;;;;;17.70;10.00;;;;;;;7.63;57.20;101214.86;104211;1274;98230;-74
2023/05/10 02:24:11;;;;;;;13.10;8.20;;;;;;;7.61;57.19;101211.55;104037;1277;100033;-77
2023/05/10 02:26:57;;;;;;;13.70;8.10;;;;;;;7.54;57.23;101209.73;104054;1273;99100;-77
2023/05/10 02:29:43;;;;;;;10.20;8.10;;;;;;;7.50;57.48;101207.11;104263;1273;99036;-78
2023/05/10 02:32:29;;;;;;;10.70;7.90;;;;;;;7.46;57.73;101205.36;103955;1279;97234;-77
2023/05/10 02:35:16;;;;;;;14.50;8.20;;;;;;;7.42;57.59;101205.55;104031;1276;96558;-76
2023/05/10 02:38:03;;;;;;;12.40;7.30;;;;;;;7.40;57.71;101208.34;104121;1278;101331;-76
2023/05/10 02:40:50;;;;;;;13.10;8.10;;;;;;;7.36;57.81;101207.50;104052;1274;99083;-77
2023/05/10 02:43:39;;;;;;;11.30;8.60;;;;;;;7.32;58.08;101207.89;104101;1277;99035;-76
2023/05/10 02:46:24;;;;;;;12.30;8.40;;;;;;;7.29;58.12;101208.02;104362;1273;96559;-76
2023/05/10 02:49:10;;;;;;;15.40;8.40;;;;;;;7.25;58.13;101204.25;104104;1276;97155;-76
2023/05/10 02:52:00;;;;;;;12.80;7.50;;;;;;;7.24;58.39;101206.20;104037;1274;100027;-76
2023/05/10 02:54:50;;;;;;;22.10;8.60;;;;;;;7.23;58.32;101208.92;104069;1287;99138;-78
2023/05/10 02:57:41;;;;;;;16.50;8.90;;;;;;;7.23;58.41;101211.20;104103;1273;97741;-76
2023/05/10 03:00:26;;;;;;;13.30;8.80;;;;;;;7.23;58.37;101219.55;104829;1276;96644;-77
2023/05/10 03:03:12;;;;;;;12.10;7.80;;;;;;;7.21;58.18;101217.33;104036;1279;96654;-75
2023/05/10 03:05:58;;;;;;;13.80;7.50;;;;;;;7.20;58.28;101221.65;104072;1273;101280;-76
2023/05/10 03:08:44;;;;;;;13.40;8.70;;;;;;;7.19;58.41;101220.73;103910;1273;100447;-75
2023/05/10 03:11:45;;;;;;;14.00;8.90;;;;;;;7.17;58.12;101219.15;104136;1273;99001;-76
2023/05/10 03:14:41;;;;;;;15.00;8.30;;;;;;;7.14;58.36;101221.02;104340;1273;96844;-77
2023/05/10 03:18:07;;;;;;;13.90;8.90;;;;;;;7.09;58.44;101219.39;104239;1273;96849;-77
2023/05/10 03:20:59;;;;;;;17.20;7.80;;;;;;;7.05;58.76;101218.15;103732;1273;101136;-76
2023/05/10 03:23:53;;;;;;;15.00;8.50;;;;;;;7.05;58.93;101219.08;103990;1273;100153;-76
2023/05/10 03:26:39;;;;;;;15.80;8.70;;;;;;;7.04;58.82;101216.51;103977;1273;97993;-77
2023/05/10 03:29:32;;;;;;;19.80;12.50;;;;;;;7.03;58.62;101214.28;104100;1274;96645;-76
2023/05/10 03:32:18;;;;;;;14.60;8.70;;;;;;;7.03;58.78;101212.89;104039;1273;97074;-77
2023/05/10 03:35:08;;;;;;;19.10;11.60;;;;;;;7.02;58.66;101214.02;104082;1275;119833;-76
2023/05/10 03:37:54;;;;;;;17.20;9.10;;;;;;;7.00;58.88;101214.20;104229;1288;99172;-77
2023/05/10 03:40:40;;;;;;;13.50;9.40;;;;;;;6.98;58.92;101211.91;104358;1274;97786;-78
2023/05/10 03:43:26;;;;;;;13.00;8.10;;;;;;;6.96;59.01;101211.75;104303;1275;96841;-78
2023/05/10 03:46:11;;;;;;;14.60;9.30;;;;;;;6.94;59.05;101214.95;104095;1273;96590;-77
2023/05/10 03:48:57;;;;;;;20.60;9.20;;;;;;;6.94;59.34;101212.33;104050;1277;100021;-75
2023/05/10 03:51:43;;;;;;;15.60;9.10;;;;;;;6.96;59.38;101209.79;104034;1277;99109;-76
2023/05/10 03:54:29;;;;;;;13.50;8.20;;;;;;;6.97;59.59;101209.70;104043;1277;99014;-76
2023/05/10 03:57:14;;;;;;;15.10;8.90;;;;;;;6.97;59.69;101209.64;103969;1277;96813;-77
2023/05/10 04:00:00;;;;;;;18.10;10.40;;;;;;;6.98;59.80;101208.15;104218;1276;98340;-78
2023/05/10 04:02:45;;;;;;;18.80;8.40;;;;;;;7.00;59.73;101206.41;104128;1287;100239;-77
2023/05/10 04:05:36;;;;;;;20.10;8.70;;;;;;;7.03;59.77;101207.52;104334;1276;100324;-76
2023/05/10 04:08:21;;;;;;;15.50;8.90;;;;;;;7.07;59.69;101207.17;104294;1272;97764;-77
2023/05/10 04:11:08;;;;;;;13.30;9.30;;;;;;;7.11;59.84;101207.98;104207;1273;96732;-77
2023/05/10 04:13:54;;;;;;;14.80;8.40;;;;;;;7.15;59.89;101206.87;104340;1275;96541;-75
2023/05/10 04:16:39;;;;;;;11.30;7.10;;;;;;;7.17;59.73;101206.14;104211;1274;100001;-77
2023/05/10 04:19:29;;;;;;;23.90;13.50;;;;;;;7.22;59.94;101210.05;104333;1273;99143;-76
2023/05/10 04:22:14;;;;;;;17.40;9.40;;;;;;;7.26;60.05;101210.39;104659;1273;98796;-76
2023/05/10 04:25:00;;;;;;;17.90;8.60;;;;;;;7.32;60.08;101211.25;104017;1276;97931;-76
2023/05/10 04:27:46;;;;;;;13.20;9.20;;;;;;;7.38;60.25;101211.00;104053;1277;96568;-76
2023/05/10 04:30:31;;;;;;;82.30;41.10;;;;;;;7.44;60.09;101212.17;104089;1273;101285;-76
2023/05/10 04:33:17;;;;;;;19.60;11.30;;;;;;;7.49;60.02;101215.23;104180;1273;100402;-77
2023/05/10 04:36:03;;;;;;;41.80;24.70;;;;;;;7.56;60.13;101214.19;104241;1277;99514;-76
2023/05/10 04:38:48;;;;;;;55.10;31.90;;;;;;;7.62;60.07;101212.11;104070;1278;97918;-76
2023/05/10 04:41:34;;;;;;;15.20;9.90;;;;;;;7.69;60.09;101215.31;104097;1277;97170;-77
2023/05/10 04:44:20;;;;;;;16.40;11.60;;;;;;;7.75;60.02;101218.80;104073;1273;100034;-77
2023/05/10 04:47:05;;;;;;;14.20;10.20;;;;;;;7.83;60.36;101216.27;104193;1277;99106;-78
2023/05/10 04:49:51;;;;;;;16.90;10.30;;;;;;;7.91;60.33;101211.16;104511;1277;99468;-79
2023/05/10 04:52:36;;;;;;;14.10;8.60;;;;;;;7.99;60.35;101213.19;104317;1273;96942;-78
2023/05/10 04:55:22;;;;;;;12.50;9.00;;;;;;;8.06;60.21;101214.44;103952;1273;97044;-77
2023/05/10 04:58:08;;;;;;;9.10;7.60;;;;;;;8.13;59.88;101216.86;104093;1276;100005;-76
2023/05/10 05:00:53;;;;;;;14.10;7.90;;;;;;;8.23;60.00;101219.02;104008;1274;99485;-78
2023/05/10 05:03:39;;;;;;;13.30;7.60;;;;;;;8.33;60.11;101218.23;104024;1273;98981;-77
2023/05/10 05:06:25;;;;;;;10.10;7.50;;;;;;;8.42;59.81;101216.53;103974;1273;96675;-77
2023/05/10 05:09:10;;;;;;;15.80;9.30;;;;;;;8.51;59.79;101214.54;104114;1273;97171;-76
2023/05/10 05:11:56;;;;;;;15.80;8.40;;;;;;;8.61;59.58;101216.36;104125;1273;100052;-76
2023/05/10 05:14:42;;;;;;;11.60;8.20;;;;;;;8.72;59.69;101213.91;103991;1279;99797;-76
2023/05/10 05:17:27;;;;;;;18.10;10.30;;;;;;;8.82;59.34;101212.33;104071;1273;97902;-77
2023/05/10 05:20:13;;;;;;;9.90;7.70;;;;;;;8.93;59.36;101214.40;104065;1273;97115;-77
2023/05/10 05:22:58;;;;;;;13.70;6.60;;;;;;;9.04;58.99;101212.55;104021;1276;96561;-76
2023/05/10 05:25:44;;;;;;;12.80;8.50;;;;;;;9.15;59.30;101213.11;104005;1274;100014;-77
2023/05/10 05:28:32;;;;;;;19.30;10.80;;;;;;;9.25;59.31;101209.55;104044;1276;99096;-77
2023/05/10 05:31:18;;;;;;;21.40;9.60;;;;;;;9.37;59.23;101204.19;104014;1273;98626;-77
2023/05/10 05:34:03;;;;;;;12.60;7.40;;;;;;;9.48;58.81;101204.73;103999;1273;96644;-77
2023/05/10 05:36:49;;;;;;;16.70;10.00;;;;;;;9.60;58.68;101202.48;104041;1276;98330;-77
2023/05/10 05:39:35;;;;;;;12.60;7.80;;;;;;;9.73;59.19;101202.46;104035;1273;101288;-76
2023/05/10 05:42:20;;;;;;;12.20;6.90;;;;;;;9.88;58.74;101198.17;104159;1276;99105;-77
2023/05/10 05:45:08;;;;;;;25.00;14.60;;;;;;;10.02;58.44;101199.96;104271;1276;97788;-76
2023/05/10 05:47:54;;;;;;;12.00;8.90;;;;;;;10.16;58.15;101199.55;104052;1274;96632;-76
2023/05/10 05:50:39;;;;;;;10.80;7.30;;;;;;;10.29;58.05;101199.20;104007;1274;97061;-76
2023/05/10 05:53:25;;;;;;;12.00;5.90;;;;;;;10.41;57.44;101202.95;104011;1274;102389;-76
2023/05/10 05:56:10;;;;;;;11.30;6.60;;;;;;;10.53;57.17;101197.46;103873;1274;99685;-77
2023/05/10 05:58:56;;;;;;;9.90;6.80;;;;;;;10.66;57.01;101198.10;105180;1272;97745;-80
2023/05/10 06:01:40;;;;;;;13.60;6.30;;;;;;;10.79;56.98;101194.50;105750;1273;96702;-80
2023/05/10 06:04:26;;;;;;;8.00;5.80;;;;;;;10.94;56.62;101202.14;104811;1277;98336;-78
2023/05/10 06:07:12;;;;;;;8.80;6.40;;;;;;;11.08;55.80;101203.39;104956;1273;100795;-79
2023/05/10 06:09:57;;;;;;;9.10;6.40;;;;;;;11.22;56.18;101206.02;105042;1273;99118;-79
2023/05/10 06:12:42;;;;;;;11.20;5.60;;;;;;;11.36;55.89;101210.07;104527;1276;98678;-79
2023/05/10 06:15:28;;;;;;;9.80;5.10;;;;;;;11.50;55.47;101207.36;104120;1276;97096;-77
2023/05/10 06:18:14;;;;;;;10.60;5.90;;;;;;;11.62;55.08;101205.73;104322;1276;96781;-79
2023/05/10 06:20:59;;;;;;;16.40;5.90;;;;;;;11.74;54.46;101203.20;104400;1276;100015;-79
2023/05/10 06:23:45;;;;;;;12.30;5.30;;;;;;;11.85;54.29;101205.15;104609;1277;100017;-80
2023/05/10 06:26:31;;;;;;;8.60;5.30;;;;;;;11.96;53.61;101198.52;104988;1273;97923;-78
2023/05/10 06:29:17;;;;;;;16.60;5.60;;;;;;;12.06;53.01;101196.70;104038;1273;96664;-79
2023/05/10 06:32:03;;;;;;;6.70;4.50;;;;;;;12.18;52.78;101201.27;104437;1276;97117;-79
2023/05/10 06:34:48;;;;;;;8.10;4.80;;;;;;;12.30;52.87;101199.20;104437;1273;101279;-78
2023/05/10 06:37:34;;;;;;;9.70;4.90;;;;;;;12.44;53.13;101196.27;104393;1288;100129;-78
2023/05/10 06:40:20;;;;;;;7.60;4.70;;;;;;;12.60;52.71;101194.55;104412;1274;99037;-78
2023/05/10 06:43:06;;;;;;;7.00;4.40;;;;;;;12.71;51.82;101192.10;104411;1276;96612;-78
2023/05/10 06:45:51;;;;;;;6.50;4.50;;;;;;;12.81;51.82;101198.06;104463;1276;97179;-78
2023/05/10 06:48:37;;;;;;;8.90;4.60;;;;;;;12.93;51.43;101196.73;104440;1280;100795;-78
2023/05/10 06:51:22;;;;;;;7.00;3.90;;;;;;;13.04;50.68;101201.33;104671;1276;99093;-83
2023/05/10 06:54:08;;;;;;;7.20;4.80;;;;;;;13.13;50.42;101197.48;105168;1273;97767;-85
2023/05/10 06:56:54;;;;;;;6.50;4.30;;;;;;;13.24;50.23;101196.36;105048;1273;96648;-85
2023/05/10 06:59:40;;;;;;;9.20;4.20;;;;;;;13.34;49.46;101189.12;105127;1275;97140;-87
2023/05/10 07:02:26;;;;;;;11.30;4.30;;;;;;;13.44;48.88;101189.14;105415;1276;108605;-88
2023/05/10 07:05:13;;;;;;;9.00;3.90;;;;;;;13.53;48.70;101188.52;105051;1273;99796;-85
2023/05/10 07:08:00;;;;;;;6.10;3.80;;;;;;;13.62;48.01;101187.13;105324;1276;99016;-86
2023/05/10 07:10:46;;;;;;;5.70;4.30;;;;;;;13.72;48.15;101185.90;105702;1272;96548;-90
2023/05/10 07:13:31;;;;;;;7.50;3.40;;;;;;;13.83;48.02;101186.50;105585;1272;96910;-87
2023/05/10 07:16:18;;;;;;;9.10;3.70;;;;;;;13.91;47.03;101182.15;105483;1272;100051;-91
2023/05/10 07:19:05;;;;;;;11.10;3.60;;;;;;;13.99;46.89;101186.36;105128;1274;100399;-86
2023/05/10 07:21:51;;;;;;;10.10;4.50;;;;;;;14.11;46.81;101187.77;105155;1273;99966;-88
2023/05/10 07:24:37;;;;;;;6.30;3.00;;;;;;;14.22;46.24;101187.20;104780;1274;96650;-81
2023/05/10 07:27:23;;;;;;;9.20;3.20;;;;;;;14.31;45.64;101188.08;105248;1273;96453;-83
2023/05/10 07:30:09;;;;;;;6.00;3.00;;;;;;;14.40;44.83;101189.55;105232;1277;100016;-81
2023/05/10 07:32:55;;;;;;;7.80;3.10;;;;;;;14.49;44.51;101189.61;105277;1274;100374;-82
2023/05/10 07:35:40;;;;;;;3.60;2.50;;;;;;;14.58;43.92;101189.14;105192;1272;99085;-85
2023/05/10 07:38:26;;;;;;;7.00;3.00;;;;;;;14.66;43.34;101187.36;105045;1274;96699;-84
2023/05/10 07:41:12;;;;;;;5.20;2.60;;;;;;;14.75;43.21;101185.91;104991;1273;97176;-82
2023/05/10 07:43:57;;;;;;;7.40;2.70;;;;;;;14.84;42.43;101189.81;105039;1272;101349;-80
2023/05/10 07:46:43;;;;;;;11.10;3.00;;;;;;;14.91;42.33;101188.77;104571;1274;99087;-79
2023/05/10 07:49:29;;;;;;;5.10;2.80;;;;;;;15.01;42.45;101184.73;104634;1273;99074;-80
2023/05/10 07:52:15;;;;;;;7.30;2.50;;;;;;;15.09;41.09;101184.52;104509;1276;97402;-79
2023/05/10 07:55:00;;;;;;;11.60;2.40;;;;;;;15.16;41.36;101178.50;104575;1276;96586;-77
2023/05/10 07:57:46;;;;;;;6.10;2.30;;;;;;;15.25;41.43;101179.41;104530;1273;101305;-81
2023/05/10 08:00:31;;;;;;;7.90;2.60;;;;;;;15.30;40.12;101175.93;104504;1272;100391;-78
2023/05/10 08:03:17;;;;;;;7.60;2.70;;;;;;;15.33;39.53;101172.49;104508;1273;97745;-79
2023/05/10 08:06:03;;;;;;;11.00;2.50;;;;;;;15.37;39.08;101176.98;104483;1274;97235;-78
2023/05/10 08:08:50;;;;;;;7.60;2.30;;;;;;;15.42;38.61;101176.46;104445;1276;97102;-79
2023/05/10 08:11:35;;;;;;;7.70;2.80;;;;;;;15.47;38.43;101180.10;104524;1274;100107;-78
2023/05/10 08:14:21;;;;;;;9.30;2.50;;;;;;;15.49;37.98;101184.23;104428;1273;99984;-78
2023/05/10 08:17:06;;;;;;;6.20;2.10;;;;;;;15.52;37.60;101178.42;104834;1276;98877;-78
2023/05/10 08:19:52;;;;;;;7.30;1.90;;;;;;;15.60;37.96;101179.88;104473;1274;96669;-79
2023/05/10 08:22:37;;;;;;;7.60;2.60;;;;;;;15.68;37.69;101176.66;104509;1273;97945;-80
2023/05/10 08:25:23;;;;;;;4.70;2.40;;;;;;;15.75;37.38;101177.16;104403;1273;100776;-78
2023/05/10 08:28:08;;;;;;;5.70;2.20;;;;;;;15.81;37.16;101176.75;104426;1273;99127;-78
2023/05/10 08:30:54;;;;;;;4.40;2.30;;;;;;;15.85;36.47;101176.09;104419;1273;99033;-80
2023/05/10 08:33:40;;;;;;;5.70;2.50;;;;;;;15.90;36.71;101172.95;104290;1274;96637;-78
2023/05/10 08:36:26;;;;;;;5.90;2.50;;;;;;;15.94;36.39;101171.98;104415;1276;97095;-79
2023/05/10 08:39:12;;;;;;;2.30;1.80;;;;;;;16.00;37.04;101173.35;104881;1272;100034;-79
2023/05/10 08:42:01;;;;;;;9.80;2.30;;;;;;;16.06;36.84;101169.77;104449;1277;99237;-79
2023/05/10 08:44:49;;;;;;;5.00;2.20;;;;;;;16.13;36.66;101173.73;104413;1272;97750;-80
2023/05/10 08:47:36;;;;;;;5.40;1.90;;;;;;;16.19;36.41;101175.63;104440;1274;96868;-77
2023/05/10 08:50:21;;;;;;;3.90;2.20;;;;;;;16.24;36.10;101171.48;104499;1273;97160;-77
2023/05/10 08:53:13;;;;;;;4.90;2.60;;;;;;;16.32;36.20;101169.46;104232;1273;101322;-78
2023/05/10 08:55:59;;;;;;;3.90;2.20;;;;;;;16.39;36.08;101166.61;104145;1276;99670;-79
2023/05/10 08:58:45;;;;;;;4.60;2.40;;;;;;;16.44;36.27;101163.23;104376;1276;97784;-79
2023/05/10 09:01:31;;;;;;;9.00;2.30;;;;;;;16.50;35.94;101165.13;104534;1276;96641;-79
2023/05/10 09:04:17;;;;;;;5.40;2.50;;;;;;;16.56;35.84;101160.88;104571;1276;97104;-79
2023/05/10 09:07:02;;;;;;;4.60;2.30;;;;;;;16.61;35.73;101164.69;104263;1273;100015;-78
2023/05/10 09:09:48;;;;;;;5.10;2.10;;;;;;;16.69;35.96;101164.54;104105;1273;100014;-79
2023/05/10 09:12:35;;;;;;;6.40;2.60;;;;;;;16.74;35.76;101165.19;104078;1289;97858;-78
2023/05/10 09:15:21;;;;;;;23.30;5.40;;;;;;;16.75;35.17;101162.15;104266;1276;96613;-78
2023/05/10 09:18:06;;;;;;;5.10;2.00;;;;;;;16.79;35.41;101161.30;104444;1276;97289;-77
2023/05/10 09:20:52;;;;;;;7.30;2.40;;;;;;;16.84;35.11;101154.33;104204;1276;100027;-79
2023/05/10 09:23:37;;;;;;;2.80;1.90;;;;;;;16.91;35.70;101158.76;104892;1274;99467;-79
2023/05/10 09:26:23;;;;;;;4.00;2.60;;;;;;;16.98;35.37;101157.65;104454;1273;99020;-77
2023/05/10 09:29:08;;;;;;;4.80;2.30;;;;;;;17.04;34.90;101156.29;104283;1273;96637;-78
2023/05/10 09:31:55;;;;;;;9.50;2.40;;;;;;;17.08;35.26;101155.06;104505;1275;97078;-80
2023/05/10 09:34:41;;;;;;;7.10;2.90;;;;;;;17.16;35.23;101159.48;104593;1276;100014;-80
2023/05/10 09:37:29;;;;;;;8.00;2.20;;;;;;;17.22;35.08;101154.16;104442;1273;99161;-78
2023/05/10 09:40:17;;;;;;;6.90;2.70;;;;;;;17.25;35.29;101153.27;104656;1273;99008;-78
2023/05/10 09:43:08;;;;;;;17.60;3.70;;;;;;;17.31;34.95;101152.73;104069;1276;97177;-77
2023/05/10 09:45:54;;;;;;;3.80;2.20;;;;;;;17.38;35.97;101148.65;104459;1276;97547;-77
2023/05/10 09:48:45;;;;;;;11.00;4.10;;;;;;;17.46;35.88;101147.99;104870;1273;100013;-79
2023/05/10 09:51:32;;;;;;;;;;;;;;;17.47;35.08;101147.88;104451;1274;99798;-80
2023/05/10 09:54:17;;;;;;;7.70;2.10;;;;;;;17.48;34.88;101147.63;104474;1274;97739;-79
2023/05/10 09:57:03;;;;;;;3.40;2.30;;;;;;;17.52;34.94;101144.52;104440;1274;97499;-78
2023/05/10 09:59:49;;;;;;;3.40;2.50;;;;;;;17.57;34.94;101140.98;104501;1276;97377;-79
2023/05/10 10:02:35;;;;;;;6.30;2.70;;;;;;;17.56;34.75;101139.11;104445;1276;100130;-78
2023/05/10 10:05:20;;;;;;;6.60;2.50;;;;;;;17.57;34.85;101129.92;104225;1273;99266;-78
2023/05/10 10:08:06;;;;;;;6.30;2.60;;;;;;;17.62;35.62;101126.10;104130;1276;106371;-78
2023/05/10 10:10:51;;;;;;;5.90;2.50;;;;;;;17.68;36.12;101122.01;104076;1276;96555;-77
2023/05/10 10:13:36;;;;;;;7.50;2.20;;;;;;;17.76;35.36;101113.06;104441;1276;96623;-79
2023/05/10 10:19:37;;;;;;;4.50;2.40;;;;;;;17.84;34.42;101109.54;103389;1276;96918;-80
2023/05/10 10:22:22;;;;;;;13.50;2.40;;;;;;;17.89;34.74;101113.34;104462;1274;98976;-78
2023/05/10 10:25:08;;;;;;;4.20;2.10;;;;;;;17.91;34.46;101118.12;104459;1280;96670;-78
2023/05/10 10:27:53;;;;;;;4.50;2.20;;;;;;;17.95;34.55;101114.95;104590;1274;96642;-79
2023/05/10 10:30:42;;;;;;;2.30;1.70;;;;;;;17.96;33.99;101112.06;104514;1277;101307;-79
2023/05/10 10:33:45;;;;;;;2.90;2.20;;;;;;;17.99;34.06;101104.98;104432;1279;100031;-77
2023/05/10 10:36:33;;;;;;;7.40;2.30;;;;;;;18.02;33.82;101104.48;104385;1285;97896;-82
2023/05/10 10:39:20;;;;;;;2.20;1.80;;;;;;;18.06;34.29;101099.98;106329;1272;96644;-81
2023/05/10 10:42:05;;;;;;;4.30;2.20;;;;;;;18.11;34.00;101099.06;104872;1279;97515;-86
2023/05/10 10:45:11;;;;;;;10.10;2.10;;;;;;;18.17;33.59;101100.89;105066;1276;101312;-82
2023/05/10 10:48:20;;;;;;;5.80;2.20;;;;;;;18.23;33.33;101102.59;105412;1277;100522;-79
2023/05/10 10:51:06;;;;;;;13.40;3.20;;;;;;;18.28;33.46;101095.42;104431;1279;99125;-79
2023/05/10 10:53:51;;;;;;;5.20;2.60;;;;;;;18.33;32.98;101099.39;104371;1279;96825;-80
2023/05/10 10:56:37;;;;;;;7.70;2.50;;;;;;;18.35;32.78;101093.31;104382;1276;97153;-79
2023/05/10 10:59:28;;;;;;;11.20;2.40;;;;;;;18.38;33.15;101092.00;104457;1277;100001;-78
2023/05/10 11:02:53;;;;;;;3.50;1.70;;;;;;;18.41;32.75;101094.33;104393;1277;99126;-80
2023/05/10 11:05:41;;;;;;;3.20;1.80;;;;;;;18.45;32.91;101091.08;105760;1273;97627;-80
2023/05/10 11:08:29;;;;;;;13.00;2.80;;;;;;;18.48;32.34;101085.10;105697;1279;96912;-79
2023/05/10 11:11:14;;;;;;;5.20;2.60;;;;;;;18.52;32.11;101089.23;104720;1275;96622;-80
2023/05/10 11:14:07;;;;;;;3.40;1.90;;;;;;;18.56;31.78;101092.06;104784;1280;101265;-80
2023/05/10 11:16:52;;;;;;;7.30;2.00;;;;;;;18.61;32.18;101086.15;105137;1276;100378;-79
2023/05/10 11:20:09;;;;;;;5.30;3.00;;;;;;;18.67;31.95;101081.31;104520;1279;97867;-79
2023/05/10 11:22:54;;;;;;;8.50;2.30;;;;;;;18.66;31.26;101080.02;104983;1274;97352;-78
2023/05/10 11:25:44;;;;;;;5.50;1.80;;;;;;;18.68;31.65;101076.67;104287;1285;99034;-79
2023/05/10 11:28:30;;;;;;;4.20;1.80;;;;;;;18.75;31.63;101073.66;104273;1286;100157;-78
2023/05/10 11:31:17;;;;;;;3.50;2.30;;;;;;;18.77;32.04;101069.50;104238;1278;100392;-78
2023/05/10 11:34:03;;;;;;;8.10;2.00;;;;;;;18.83;32.59;101064.73;104194;1287;108063;-78
2023/05/10 11:36:56;;;;;;;6.80;2.30;;;;;;;18.91;32.25;101070.30;104148;1276;96688;-79
2023/05/10 11:39:47;;;;;;;6.10;2.20;;;;;;;19.00;32.02;101071.17;104312;1277;96593;-79
2023/05/10 11:42:33;;;;;;;3.40;2.40;;;;;;;19.06;31.45;101066.01;104802;1279;101345;-79
2023/05/10 11:45:18;;;;;;;3.90;2.10;;;;;;;19.05;31.87;101064.63;104228;1279;100378;-79
2023/05/10 11:48:04;;;;;;;5.20;2.30;;;;;;;19.06;31.88;101066.67;104210;1277;99003;-78
2023/05/10 11:50:50;;;;;;;3.90;2.30;;;;;;;19.05;31.84;101067.84;104255;1278;96705;-77
2023/05/10 11:53:35;;;;;;;6.90;2.30;;;;;;;19.10;31.84;101062.72;104170;1277;97159;-78
2023/05/10 11:56:21;;;;;;;5.60;2.00;;;;;;;19.16;31.72;101065.14;104164;1281;100039;-79
2023/05/10 11:59:07;;;;;;;4.50;1.90;;;;;;;19.18;31.38;101064.23;104035;1280;100485;-78
2023/05/10 12:01:53;;;;;;;7.00;1.80;;;;;;;19.20;30.63;101063.04;104127;1280;97735;-78
2023/05/10 12:07:33;;;;;;;8.40;2.20;;;;;;;19.18;30.98;101063.41;106773;1274;96568;31
2023/05/10 12:10:26;;;;;;;4.40;1.40;;;;;;;19.22;30.90;101062.97;105003;1276;101253;-79
2023/05/10 12:13:15;;;;;;;2.70;1.80;;;;;;;19.26;31.06;101066.05;104433;1276;100378;-79
2023/05/10 12:16:12;;;;;;;4.50;1.80;;;;;;;19.29;30.86;101062.15;104364;1279;97798;-79
2023/05/10 12:19:00;;;;;;;9.80;2.70;;;;;;;19.32;30.60;101061.15;104396;1280;96650;-78
2023/05/10 12:21:45;;;;;;;7.00;2.10;;;;;;;19.34;30.85;101061.55;104323;1277;98425;-77
2023/05/10 12:24:34;;;;;;;4.90;2.00;;;;;;;19.39;30.91;101061.36;104361;1276;100036;-79
2023/05/10 12:27:20;;;;;;;4.80;2.10;;;;;;;19.42;30.84;101056.71;104976;1273;99088;-80
2023/05/10 12:30:06;;;;;;;6.70;2.00;;;;;;;19.47;30.77;101053.58;104567;1275;99170;-79
2023/05/10 12:32:52;;;;;;;7.50;2.00;;;;;;;19.47;30.70;101053.37;104610;1276;97536;-80
2023/05/10 12:35:45;;;;;;;3.90;1.80;;;;;;;19.52;31.50;101057.30;104441;1277;98223;-79
2023/05/10 12:38:39;;;;;;;5.40;2.00;;;;;;;19.63;30.71;101055.45;104536;1274;110069;-80
2023/05/10 12:41:24;;;;;;;4.40;1.60;;;;;;;19.61;30.15;101052.52;104432;1274;100148;-85
2023/05/10 12:47:25;;;;;;;5.90;2.10;;;;;;;19.67;30.84;101054.83;103864;1279;96642;-81
2023/05/10 12:50:10;;;;;;;4.80;1.80;;;;;;;19.71;30.59;101057.23;104937;1278;96572;-82
2023/05/10 12:52:56;;;;;;;2.80;1.80;;;;;;;19.73;29.85;101053.58;104936;1274;100000;-83
2023/05/10 12:58:35;;;;;;;3.30;1.80;;;;;;;19.76;29.49;101047.45;105697;1273;100994;-84
2023/05/10 13:01:20;;;;;;;8.90;2.10;;;;;;;19.82;30.01;101050.53;104631;1276;96664;-83